Time;durP1;ratioP1;P1;durP2;ratioP2;P2;SDS_P1;SDS_P2;PMS_P1;PMS_P2;Temp;Humidity;BMP_temperature;BMP_pressure;BME280_temperature;BME280_humidity;BME280_pressure;Samples;Min_cycle;Max_cycle;Signal;HPM_P1;HPM_P2
2021/12/10 00:01:12;;;;;;;7.07;3.20;;;;;;;;;;6188108;23;20194;-93
2021/12/10 00:03:47;;;;;;;1.97;1.40;;;;;;;;;;6187287;23;20237;-93
2021/12/10 00:06:17;;;;;;;5.33;1.70;;;;;;;;;;6188114;23;20186;-92
2021/12/10 00:08:47;;;;;;;2.20;1.50;;;;;;;;;;6188385;23;20186;-93
2021/12/10 00:11:16;;;;;;;2.80;1.37;;;;;;;;;;6188823;23;20175;-94
2021/12/10 00:13:45;;;;;;;4.53;1.63;;;;;;;;;;6187314;23;20225;-94
2021/12/10 00:16:13;;;;;;;8.97;3.40;;;;;;;;;;6188091;23;20174;-93
2021/12/10 00:18:47;;;;;;;3.87;2.73;;;;;;;;;;6188773;23;20182;-93
2021/12/10 00:21:14;;;;;;;6.63;3.23;;;;;;;;;;6188671;23;20174;-93
2021/12/10 00:23:49;;;;;;;3.80;2.60;;;;;;;;;;6186832;23;20229;-92
2021/12/10 00:26:16;;;;;;;4.40;2.17;;;;;;;;;;6187835;23;20196;-93
2021/12/10 00:28:43;;;;;;;3.07;2.33;;;;;;;;;;6188510;23;20245;-93
2021/12/10 00:31:19;;;;;;;4.23;1.80;;;;;;;;;;6188486;23;20203;-93
2021/12/10 00:33:51;;;;;;;5.43;2.13;;;;;;;;;;6186427;23;20178;-94
2021/12/10 00:36:18;;;;;;;2.33;1.50;;;;;;;;;;6187628;23;20229;-93
2021/12/10 00:38:47;;;;;;;1.77;1.67;;;;;;;;;;6188168;23;20179;-93
2021/12/10 00:41:15;;;;;;;3.17;1.83;;;;;;;;;;6186884;23;20174;-94
2021/12/10 00:43:42;;;;;;;1.83;1.47;;;;;;;;;;6188260;23;20178;-94
2021/12/10 00:46:10;;;;;;;3.60;1.83;;;;;;;;;;6187736;23;20217;-93
2021/12/10 00:48:38;;;;;;;3.23;1.53;;;;;;;;;;6187600;23;20186;-93
2021/12/10 00:51:06;;;;;;;4.67;1.63;;;;;;;;;;6187723;23;20198;-93
2021/12/10 00:53:33;;;;;;;4.80;2.13;;;;;;;;;;6188343;23;20206;-94
2021/12/10 00:56:03;;;;;;;2.77;2.20;;;;;;;;;;6188543;23;20174;-93
2021/12/10 00:58:30;;;;;;;2.33;1.93;;;;;;;;;;6187533;23;20179;-93
2021/12/10 01:00:59;;;;;;;3.63;1.97;;;;;;;;;;6188799;23;20195;-93
2021/12/10 01:03:28;;;;;;;5.33;2.20;;;;;;;;;;6189445;23;20179;-94
2021/12/10 01:05:56;;;;;;;5.30;3.07;;;;;;;;;;6187388;23;20194;-93
2021/12/10 01:08:24;;;;;;;2.43;2.17;;;;;;;;;;6188975;23;20170;-94
2021/12/10 01:10:53;;;;;;;4.00;1.80;;;;;;;;;;6189233;23;20195;-93
2021/12/10 01:13:27;;;;;;;3.37;1.80;;;;;;;;;;6189474;23;20179;-94
2021/12/10 01:16:10;;;;;;;2.77;2.03;;;;;;;;;;6186474;23;20170;-93
2021/12/10 01:24:17;;;;;;;5.30;2.20;;;;;;;;;;6187435;23;20162;-93
2021/12/10 01:27:00;;;;;;;3.50;2.10;;;;;;;;;;6188427;23;20228;-93
2021/12/10 01:29:30;;;;;;;2.83;1.97;;;;;;;;;;6188766;23;20195;-93
2021/12/10 01:31:58;;;;;;;3.27;1.80;;;;;;;;;;6186738;23;20178;-94
2021/12/10 01:34:25;;;;;;;2.23;1.60;;;;;;;;;;6187186;23;20205;-93
2021/12/10 01:36:53;;;;;;;1.63;1.53;;;;;;;;;;6187490;23;20170;-93
2021/12/10 01:39:22;;;;;;;3.57;1.80;;;;;;;;;;6187277;23;20245;-93
2021/12/10 01:41:58;;;;;;;3.77;2.53;;;;;;;;;;6185675;23;20652;-93
2021/12/10 01:44:30;;;;;;;3.10;1.60;;;;;;;;;;6187323;23;20174;-93
2021/12/10 01:47:06;;;;;;;2.97;1.90;;;;;;;;;;6186885;23;20217;-93
2021/12/10 01:49:33;;;;;;;3.77;2.03;;;;;;;;;;6191593;23;20225;-92
2021/12/10 01:52:01;;;;;;;2.70;1.77;;;;;;;;;;6198634;23;20198;-93
2021/12/10 01:54:30;;;;;;;3.17;2.23;;;;;;;;;;6186580;23;20182;-93
2021/12/10 01:56:59;;;;;;;5.60;2.50;;;;;;;;;;6186640;23;20171;-93
2021/12/10 01:59:27;;;;;;;3.43;2.10;;;;;;;;;;6185365;23;20199;-93
2021/12/10 02:01:57;;;;;;;4.33;2.13;;;;;;;;;;6183591;23;20179;-94
2021/12/10 02:04:27;;;;;;;4.87;2.40;;;;;;;;;;6185562;23;20179;-93
2021/12/10 02:06:55;;;;;;;5.50;2.40;;;;;;;;;;6185522;23;20191;-94
2021/12/10 02:09:22;;;;;;;2.87;1.90;;;;;;;;;;6184443;23;20253;-93
2021/12/10 02:11:50;;;;;;;4.43;2.17;;;;;;;;;;6185657;23;20236;-93
2021/12/10 02:14:17;;;;;;;4.00;2.03;;;;;;;;;;6185754;23;20562;-92
2021/12/10 02:16:45;;;;;;;4.23;2.50;;;;;;;;;;6185229;23;20537;-93
2021/12/10 02:19:18;;;;;;;5.13;2.40;;;;;;;;;;6188194;23;20199;-93
2021/12/10 02:24:40;;;;;;;2.97;2.20;;;;;;;;;;6183702;23;20187;-93
2021/12/10 02:27:08;;;;;;;6.53;2.73;;;;;;;;;;6183525;23;20198;-93
2021/12/10 02:29:38;;;;;;;6.67;2.43;;;;;;;;;;6184740;23;20509;-93
2021/12/10 02:32:07;;;;;;;4.10;2.67;;;;;;;;;;6185133;23;20185;-93
2021/12/10 02:34:35;;;;;;;2.70;2.10;;;;;;;;;;6184956;23;20213;-91
2021/12/10 02:37:04;;;;;;;3.67;2.80;;;;;;;;;;6183713;23;20175;-93
2021/12/10 02:39:31;;;;;;;6.00;2.20;;;;;;;;;;6185520;23;20249;-94
2021/12/10 02:41:59;;;;;;;8.77;3.00;;;;;;;;;;6185150;23;20179;-93
2021/12/10 02:44:28;;;;;;;3.97;2.70;;;;;;;;;;6183871;23;20975;-93
2021/12/10 02:46:56;;;;;;;5.03;2.80;;;;;;;;;;6183753;23;20218;-93
2021/12/10 02:49:23;;;;;;;3.57;2.50;;;;;;;;;;6184908;23;20198;-93
2021/12/10 02:51:50;;;;;;;5.80;2.77;;;;;;;;;;6183987;23;20179;-93
2021/12/10 02:54:23;;;;;;;2.93;2.30;;;;;;;;;;6184654;23;20495;-93
2021/12/10 02:56:51;;;;;;;5.40;2.23;;;;;;;;;;6184181;23;20669;-93
2021/12/10 02:59:18;;;;;;;3.73;3.30;;;;;;;;;;6184547;23;20205;-93
2021/12/10 03:01:47;;;;;;;4.07;3.30;;;;;;;;;;6183315;23;20179;-93
2021/12/10 03:04:15;;;;;;;7.63;2.53;;;;;;;;;;6184447;23;20183;-93
2021/12/10 03:06:44;;;;;;;4.33;2.90;;;;;;;;;;6184683;23;20194;-93
2021/12/10 03:09:12;;;;;;;3.93;2.77;;;;;;;;;;6183339;23;20656;-93
2021/12/10 03:11:46;;;;;;;5.47;3.10;;;;;;;;;;6184166;23;20179;-93
2021/12/10 03:14:14;;;;;;;3.33;2.90;;;;;;;;;;6184990;23;20179;-93
2021/12/10 03:16:43;;;;;;;4.47;2.83;;;;;;;;;;6182836;23;20175;-93
2021/12/10 03:19:11;;;;;;;6.23;3.97;;;;;;;;;;6184389;23;20202;-93
2021/12/10 03:21:39;;;;;;;5.33;3.87;;;;;;;;;;6184850;23;20175;-93
2021/12/10 03:24:06;;;;;;;5.03;3.20;;;;;;;;;;6184969;23;20240;-93
2021/12/10 03:26:34;;;;;;;6.67;3.63;;;;;;;;;;6182321;23;20198;-93
2021/12/10 03:29:03;;;;;;;4.53;2.90;;;;;;;;;;6184535;23;20183;-93
2021/12/10 03:31:30;;;;;;;5.17;3.20;;;;;;;;;;6184883;23;20175;-93
2021/12/10 03:33:59;;;;;;;3.43;2.87;;;;;;;;;;6183403;23;20175;-93
2021/12/10 03:36:26;;;;;;;4.83;3.10;;;;;;;;;;6184144;23;20177;-92
2021/12/10 03:38:54;;;;;;;6.57;2.90;;;;;;;;;;6184906;23;20182;-93
2021/12/10 03:41:22;;;;;;;4.80;2.90;;;;;;;;;;6186325;23;20186;-93
2021/12/10 03:43:50;;;;;;;5.30;2.53;;;;;;;;;;6184653;23;20519;-93
2021/12/10 03:46:20;;;;;;;3.13;2.73;;;;;;;;;;6185286;23;20197;-93
2021/12/10 03:48:47;;;;;;;4.20;2.60;;;;;;;;;;6186168;23;20178;-93
2021/12/10 03:51:17;;;;;;;3.63;2.30;;;;;;;;;;6185086;23;20174;-92
2021/12/10 03:53:44;;;;;;;4.97;2.60;;;;;;;;;;6186447;23;20225;-93
2021/12/10 03:56:13;;;;;;;2.83;2.50;;;;;;;;;;6182188;23;20178;-93
2021/12/10 03:58:41;;;;;;;3.33;2.70;;;;;;;;;;6186689;23;20174;-92
2021/12/10 04:01:09;;;;;;;2.43;2.23;;;;;;;;;;6186358;23;20203;-92
2021/12/10 04:03:39;;;;;;;3.40;2.37;;;;;;;;;;6186568;23;20179;-92
2021/12/10 04:06:07;;;;;;;2.77;2.23;;;;;;;;;;6183983;23;20662;-92
2021/12/10 04:08:34;;;;;;;5.83;2.53;;;;;;;;;;6185753;23;20175;-92
2021/12/10 04:11:02;;;;;;;3.07;2.13;;;;;;;;;;6185875;23;20202;-92
2021/12/10 04:13:29;;;;;;;4.27;2.47;;;;;;;;;;6185937;23;20178;-92
2021/12/10 04:15:57;;;;;;;6.27;3.00;;;;;;;;;;6184730;23;20612;-92
2021/12/10 04:18:24;;;;;;;4.60;2.40;;;;;;;;;;6186003;23;20252;-93
2021/12/10 04:20:53;;;;;;;3.87;2.03;;;;;;;;;;6186070;23;20218;-92
2021/12/10 04:23:24;;;;;;;7.43;2.60;;;;;;;;;;6184480;23;20179;-93
2021/12/10 04:25:51;;;;;;;4.97;1.93;;;;;;;;;;6184415;23;20253;-93
2021/12/10 04:28:20;;;;;;;6.10;2.57;;;;;;;;;;6189563;23;20713;-93
2021/12/10 04:30:48;;;;;;;3.03;2.10;;;;;;;;;;6185608;23;20202;-93
2021/12/10 04:33:17;;;;;;;2.30;1.93;;;;;;;;;;6186033;23;20179;-94
2021/12/10 04:35:45;;;;;;;4.83;2.53;;;;;;;;;;6183941;23;20182;-92
2021/12/10 04:38:14;;;;;;;6.00;2.63;;;;;;;;;;6185117;23;20523;-93
2021/12/10 04:40:41;;;;;;;4.77;2.40;;;;;;;;;;6185831;23;20194;-93
2021/12/10 04:43:09;;;;;;;5.10;2.33;;;;;;;;;;6185765;23;20237;-93
2021/12/10 04:45:36;;;;;;;5.97;2.23;;;;;;;;;;6184434;23;20182;-93
2021/12/10 04:48:05;;;;;;;2.53;2.23;;;;;;;;;;6184918;23;20195;-93
2021/12/10 04:50:33;;;;;;;3.27;2.20;;;;;;;;;;6185574;23;20335;-93
2021/12/10 04:53:01;;;;;;;4.43;1.83;;;;;;;;;;6185227;23;20652;-93
2021/12/10 04:55:30;;;;;;;3.87;2.37;;;;;;;;;;6184031;23;20266;-93
2021/12/10 04:57:58;;;;;;;3.17;1.80;;;;;;;;;;6184865;23;20229;-93
2021/12/10 05:00:27;;;;;;;5.30;2.30;;;;;;;;;;6179188;23;20241;-93
2021/12/10 05:02:55;;;;;;;6.77;3.00;;;;;;;;;;6183686;23;20181;-92
2021/12/10 05:05:23;;;;;;;7.50;2.80;;;;;;;;;;6184724;23;20186;-93
2021/12/10 05:07:51;;;;;;;7.30;2.47;;;;;;;;;;6184065;23;20249;-91
2021/12/10 05:10:20;;;;;;;5.70;2.30;;;;;;;;;;6185058;23;20199;-93
2021/12/10 05:12:49;;;;;;;3.13;2.30;;;;;;;;;;6185115;23;20178;-93
2021/12/10 05:15:18;;;;;;;3.77;2.60;;;;;;;;;;6185722;23;20237;-93
2021/12/10 05:17:48;;;;;;;4.57;3.10;;;;;;;;;;6183730;23;20171;-92
2021/12/10 05:20:17;;;;;;;3.57;2.67;;;;;;;;;;6184777;23;20685;-93
2021/12/10 05:22:46;;;;;;;3.40;2.77;;;;;;;;;;6185613;23;20224;-93
2021/12/10 05:25:13;;;;;;;5.27;3.07;;;;;;;;;;6185236;23;20241;-92
2021/12/10 05:27:41;;;;;;;4.90;2.73;;;;;;;;;;6183864;23;20218;-92
2021/12/10 05:30:38;;;;;;;3.50;2.80;;;;;;;;;;6185375;23;20222;-94
2021/12/10 05:33:17;;;;;;;4.53;3.07;;;;;;;;;;6185856;23;20175;-92
2021/12/10 05:35:45;;;;;;;5.97;2.70;;;;;;;;;;6186189;23;20278;-92
2021/12/10 05:38:13;;;;;;;4.93;3.67;;;;;;;;;;6185396;23;20237;-93
2021/12/10 05:40:40;;;;;;;5.07;3.30;;;;;;;;;;6186450;23;20514;-92
2021/12/10 05:43:08;;;;;;;7.63;3.77;;;;;;;;;;6188192;23;20185;-93
2021/12/10 05:45:35;;;;;;;3.90;3.30;;;;;;;;;;6199335;23;20179;-92
2021/12/10 05:48:03;;;;;;;8.80;4.10;;;;;;;;;;6210144;23;20236;-92
2021/12/10 05:50:32;;;;;;;5.43;3.23;;;;;;;;;;6211599;23;20191;-91
2021/12/10 05:53:00;;;;;;;3.13;2.70;;;;;;;;;;6212254;23;20158;-92
2021/12/10 05:55:28;;;;;;;5.53;4.17;;;;;;;;;;6210980;23;20194;-92
2021/12/10 05:57:55;;;;;;;6.63;3.80;;;;;;;;;;6210084;23;20190;-91
2021/12/10 06:00:25;;;;;;;7.67;3.70;;;;;;;;;;6211033;23;20199;-94
2021/12/10 06:02:52;;;;;;;8.43;3.33;;;;;;;;;;6198934;23;20177;-93
2021/12/10 06:05:20;;;;;;;6.23;3.50;;;;;;;;;;6182149;23;20185;-92
2021/12/10 06:07:49;;;;;;;5.33;2.83;;;;;;;;;;6184323;23;20217;-92
2021/12/10 06:10:18;;;;;;;5.03;3.67;;;;;;;;;;6184583;23;20209;-93
2021/12/10 06:12:49;;;;;;;5.13;3.87;;;;;;;;;;6184971;23;20245;-92
2021/12/10 06:15:17;;;;;;;6.10;4.30;;;;;;;;;;6183654;23;20166;-93
2021/12/10 06:18:20;;;;;;;6.07;3.93;;;;;;;;;;6190576;23;20222;-93
2021/12/10 06:20:49;;;;;;;8.57;5.07;;;;;;;;;;6187079;23;20290;-93
2021/12/10 06:23:19;;;;;;;7.43;4.10;;;;;;;;;;6183009;23;20254;-92
2021/12/10 06:25:48;;;;;;;5.80;4.37;;;;;;;;;;6184140;23;20684;-92
2021/12/10 06:36:39;;;;;;;8.93;4.87;;;;;;;;;;6213682;23;20192;-91
2021/12/10 06:39:14;;;;;;;4.93;3.67;;;;;;;;;;6209438;23;20204;-91
2021/12/10 06:42:34;;;;;;;7.93;4.03;;;;;;;;;;6183504;23;20185;-91
2021/12/10 06:45:05;;;;;;;10.43;5.10;;;;;;;;;;6063349;23;20197;-91
2021/12/10 06:47:32;;;;;;;11.70;5.03;;;;;;;;;;6062551;23;20202;-90
2021/12/10 06:50:00;;;;;;;10.20;5.27;;;;;;;;;;6148763;23;20226;-91
2021/12/10 06:52:27;;;;;;;11.97;5.67;;;;;;;;;;6184108;23;20258;-91
2021/12/10 06:54:56;;;;;;;9.23;5.03;;;;;;;;;;6184201;23;20862;-91
2021/12/10 06:57:24;;;;;;;6.67;4.73;;;;;;;;;;6182497;23;20178;-91
2021/12/10 06:59:52;;;;;;;7.93;4.90;;;;;;;;;;6183931;23;20195;-91
2021/12/10 07:02:20;;;;;;;8.20;5.13;;;;;;;;;;6184677;23;20175;-91
2021/12/10 07:04:48;;;;;;;10.33;5.53;;;;;;;;;;6182930;23;20234;-91
2021/12/10 07:07:16;;;;;;;12.07;5.23;;;;;;;;;;6182773;23;20195;-91
2021/12/10 07:09:46;;;;;;;13.03;9.43;;;;;;;;;;6184101;23;20254;-91
2021/12/10 07:12:18;;;;;;;12.07;5.70;;;;;;;;;;6192949;23;20195;-91
2021/12/10 07:14:47;;;;;;;11.83;6.23;;;;;;;;;;6187246;23;20179;-89
2021/12/10 07:17:18;;;;;;;15.20;8.87;;;;;;;;;;6184730;23;20174;-90
2021/12/10 07:19:45;;;;;;;14.77;7.00;;;;;;;;;;6186329;23;20199;-91
2021/12/10 07:22:12;;;;;;;11.77;6.83;;;;;;;;;;6184724;23;20189;-90
2021/12/10 07:24:40;;;;;;;7.07;5.57;;;;;;;;;;6186048;23;20182;-91
2021/12/10 07:27:11;;;;;;;7.30;4.97;;;;;;;;;;6185845;23;20190;-91
2021/12/10 07:29:40;;;;;;;12.17;6.07;;;;;;;;;;6185071;23;20202;-91
2021/12/10 07:32:08;;;;;;;10.03;6.33;;;;;;;;;;6185902;23;20185;-91
2021/12/10 07:34:36;;;;;;;8.87;5.33;;;;;;;;;;6185568;23;20194;-91
2021/12/10 07:37:04;;;;;;;9.00;5.53;;;;;;;;;;6185728;23;20175;-91
2021/12/10 07:39:32;;;;;;;14.97;5.80;;;;;;;;;;6184363;23;20195;-91
2021/12/10 07:42:00;;;;;;;7.60;5.83;;;;;;;;;;6185766;23;20182;-91
2021/12/10 07:44:28;;;;;;;9.90;5.80;;;;;;;;;;6185878;23;20181;-91
2021/12/10 07:46:57;;;;;;;11.20;5.13;;;;;;;;;;6184492;23;20186;-90
2021/12/10 07:49:28;;;;;;;9.17;5.60;;;;;;;;;;6185795;23;20194;-91
2021/12/10 07:51:56;;;;;;;12.17;6.77;;;;;;;;;;6186461;23;20246;-91
2021/12/10 07:54:24;;;;;;;15.57;7.03;;;;;;;;;;6184959;23;20175;-90
2021/12/10 07:56:51;;;;;;;8.80;5.33;;;;;;;;;;6185305;23;20388;-91
2021/12/10 07:59:19;;;;;;;11.40;6.20;;;;;;;;;;6185784;23;20202;-91
2021/12/10 08:01:47;;;;;;;7.20;5.20;;;;;;;;;;6185998;23;20193;-92
2021/12/10 08:04:46;;;;;;;8.73;5.93;;;;;;;;;;6188945;23;20179;-91
2021/12/10 08:07:15;;;;;;;11.00;4.80;;;;;;;;;;6186841;23;20179;-91
2021/12/10 08:09:42;;;;;;;9.03;5.80;;;;;;;;;;6187021;23;20697;-90
2021/12/10 08:12:10;;;;;;;8.10;5.40;;;;;;;;;;6186905;23;20505;-91
2021/12/10 08:14:38;;;;;;;9.47;6.03;;;;;;;;;;6191655;23;20242;-92
2021/12/10 08:17:05;;;;;;;8.67;5.77;;;;;;;;;;6187120;23;20179;-93
2021/12/10 08:19:33;;;;;;;8.77;5.90;;;;;;;;;;6186469;23;20205;-92
2021/12/10 08:22:00;;;;;;;9.90;5.77;;;;;;;;;;6184986;23;20615;-93
2021/12/10 08:24:29;;;;;;;9.40;5.33;;;;;;;;;;6185456;23;20174;-92
2021/12/10 08:26:56;;;;;;;6.83;5.20;;;;;;;;;;6185110;23;20182;-92
2021/12/10 08:32:06;;;;;;;6.73;4.30;;;;;;;;;;6175374;23;20198;-92
2021/12/10 08:34:33;;;;;;;7.23;4.13;;;;;;;;;;6185477;23;20638;-92
2021/12/10 08:37:01;;;;;;;7.10;4.27;;;;;;;;;;6185699;23;20245;-94
2021/12/10 08:39:30;;;;;;;6.73;4.87;;;;;;;;;;6185311;23;20190;-92
2021/12/10 08:41:58;;;;;;;6.30;4.37;;;;;;;;;;6185723;23;20175;-93
2021/12/10 08:44:26;;;;;;;6.07;4.30;;;;;;;;;;6185401;23;20649;-92
2021/12/10 08:46:53;;;;;;;5.57;4.20;;;;;;;;;;6184213;23;20233;-92
2021/12/10 08:49:21;;;;;;;6.40;4.27;;;;;;;;;;6184813;23;20198;-92
2021/12/10 08:51:50;;;;;;;4.03;3.63;;;;;;;;;;6185477;23;20185;-92
2021/12/10 08:54:18;;;;;;;6.33;3.83;;;;;;;;;;6184309;23;20183;-92
2021/12/10 08:56:48;;;;;;;4.47;3.40;;;;;;;;;;6185383;23;20233;-92
2021/12/10 08:59:15;;;;;;;5.57;3.40;;;;;;;;;;6185523;23;20191;-92
2021/12/10 09:01:45;;;;;;;5.47;3.67;;;;;;;;;;6185759;23;20611;-92
2021/12/10 09:04:14;;;;;;;5.63;3.60;;;;;;;;;;6184999;23;20221;-92
2021/12/10 09:06:43;;;;;;;9.03;3.83;;;;;;;;;;6185309;23;20552;-92
2021/12/10 09:09:11;;;;;;;6.17;3.30;;;;;;;;;;6185230;23;20213;-92
2021/12/10 09:11:39;;;;;;;9.23;4.00;;;;;;;;;;6185002;23;20185;-92
2021/12/10 09:14:08;;;;;;;7.07;3.60;;;;;;;;;;6185208;23;20175;-92
2021/12/10 09:16:36;;;;;;;5.63;3.77;;;;;;;;;;6185284;23;20274;-92
2021/12/10 09:19:05;;;;;;;5.43;3.90;;;;;;;;;;6185299;23;20504;-92
2021/12/10 09:21:33;;;;;;;8.00;3.87;;;;;;;;;;6184842;23;20178;-91
2021/12/10 09:24:04;;;;;;;4.63;3.63;;;;;;;;;;6185347;23;20198;-92
2021/12/10 09:26:33;;;;;;;6.57;3.77;;;;;;;;;;6185617;23;20518;-91
2021/12/10 09:29:01;;;;;;;5.57;3.50;;;;;;;;;;6184860;23;20198;-92
2021/12/10 09:31:29;;;;;;;4.63;3.60;;;;;;;;;;6185186;23;20178;-91
2021/12/10 09:33:58;;;;;;;5.50;3.40;;;;;;;;;;6184954;23;20198;-92
2021/12/10 09:36:26;;;;;;;5.00;3.20;;;;;;;;;;6184976;23;20567;-92
2021/12/10 09:39:15;;;;;;;5.07;3.70;;;;;;;;;;6184176;23;20241;-92
2021/12/10 09:41:42;;;;;;;7.43;4.30;;;;;;;;;;6185147;23;20179;-91
2021/12/10 09:44:10;;;;;;;5.93;4.23;;;;;;;;;;6184537;23;20182;-92
2021/12/10 09:46:39;;;;;;;9.30;3.07;;;;;;;;;;6183178;23;20213;-91
2021/12/10 09:49:09;;;;;;;5.77;3.70;;;;;;;;;;6182413;23;20205;-92
2021/12/10 09:51:39;;;;;;;6.70;3.13;;;;;;;;;;6183717;23;20565;-91
2021/12/10 09:54:11;;;;;;;6.40;4.00;;;;;;;;;;6185154;23;20685;-92
2021/12/10 09:56:39;;;;;;;5.37;3.30;;;;;;;;;;6184864;23;20178;-92
2021/12/10 09:59:07;;;;;;;5.60;3.50;;;;;;;;;;6184841;23;20174;-92
2021/12/10 10:01:37;;;;;;;11.73;3.77;;;;;;;;;;6185176;23;20179;-92
2021/12/10 10:04:06;;;;;;;7.77;3.40;;;;;;;;;;6185082;23;20179;-92
2021/12/10 10:06:36;;;;;;;6.00;3.50;;;;;;;;;;6184530;23;20240;-92
2021/12/10 10:09:05;;;;;;;5.83;3.30;;;;;;;;;;6184542;23;20202;-92
2021/12/10 10:11:34;;;;;;;4.77;2.77;;;;;;;;;;6184556;23;20178;-92
2021/12/10 10:14:01;;;;;;;4.23;2.73;;;;;;;;;;6185167;23;20551;-92
2021/12/10 10:16:30;;;;;;;4.00;2.40;;;;;;;;;;6184257;23;20179;-92
2021/12/10 10:18:57;;;;;;;2.83;1.93;;;;;;;;;;6184375;23;20182;-92
2021/12/10 10:21:30;;;;;;;1.90;1.70;;;;;;;;;;6184880;23;20179;-93
2021/12/10 10:23:58;;;;;;;1.87;1.40;;;;;;;;;;6184524;23;20174;-92
2021/12/10 10:26:31;;;;;;;1.40;1.20;;;;;;;;;;6185232;23;20254;-92
2021/12/10 10:28:59;;;;;;;2.30;1.60;;;;;;;;;;6184578;23;20194;-92
2021/12/10 10:31:27;;;;;;;1.20;1.00;;;;;;;;;;6182391;23;20814;-92
2021/12/10 10:33:56;;;;;;;1.73;1.50;;;;;;;;;;6180603;23;20193;-94
2021/12/10 10:36:28;;;;;;;3.67;2.33;;;;;;;;;;6181099;23;20186;-92
2021/12/10 10:38:58;;;;;;;1.80;1.00;;;;;;;;;;6178007;23;20678;-94
2021/12/10 10:41:28;;;;;;;2.90;1.77;;;;;;;;;;6179116;23;20258;-92
2021/12/10 10:43:55;;;;;;;1.50;1.20;;;;;;;;;;6180628;23;20198;-91
2021/12/10 10:46:23;;;;;;;1.13;0.90;;;;;;;;;;6180982;23;20179;-94
2021/12/10 10:48:50;;;;;;;1.20;1.10;;;;;;;;;;6180891;23;20191;-91
2021/12/10 10:51:19;;;;;;;0.80;0.80;;;;;;;;;;6181071;23;20210;-92
2021/12/10 10:53:49;;;;;;;2.03;1.03;;;;;;;;;;6181367;23;20174;-93
2021/12/10 10:56:17;;;;;;;1.27;1.10;;;;;;;;;;6181509;23;20201;-92
2021/12/10 10:58:46;;;;;;;0.70;0.70;;;;;;;;;;6181220;23;20237;-92
2021/12/10 11:01:23;;;;;;;2.13;1.33;;;;;;;;;;6180870;23;20591;-92
2021/12/10 11:03:53;;;;;;;1.00;1.00;;;;;;;;;;6180500;23;20183;-92
2021/12/10 11:06:25;;;;;;;1.20;1.10;;;;;;;;;;6181666;23;20253;-93
2021/12/10 11:08:55;;;;;;;1.33;0.90;;;;;;;;;;6181823;23;20191;-92
2021/12/10 11:11:24;;;;;;;1.53;1.23;;;;;;;;;;6179882;23;20167;-92
2021/12/10 11:13:53;;;;;;;6.37;1.07;;;;;;;;;;6178492;23;20175;-92
2021/12/10 11:16:21;;;;;;;2.10;1.20;;;;;;;;;;6178268;23;20181;-92
2021/12/10 11:18:51;;;;;;;0.90;0.80;;;;;;;;;;6178478;23;20175;-93
2021/12/10 11:21:19;;;;;;;1.93;0.80;;;;;;;;;;6177969;23;20175;-91
2021/12/10 11:23:52;;;;;;;1.13;0.90;;;;;;;;;;6178950;23;20233;-93
2021/12/10 11:26:26;;;;;;;1.50;1.00;;;;;;;;;;6178271;23;20233;-92
2021/12/10 11:28:54;;;;;;;1.50;0.83;;;;;;;;;;6175275;23;20199;-92
2021/12/10 11:31:21;;;;;;;0.97;0.80;;;;;;;;;;6179686;23;20178;-92
2021/12/10 11:33:50;;;;;;;1.13;1.03;;;;;;;;;;6177391;23;20527;-92
2021/12/10 11:36:18;;;;;;;2.10;0.77;;;;;;;;;;6178675;23;20198;-93
2021/12/10 11:38:49;;;;;;;1.03;0.90;;;;;;;;;;6178314;23;20275;-92
2021/12/10 11:41:18;;;;;;;0.63;0.63;;;;;;;;;;6178696;23;20171;-93
2021/12/10 11:44:06;;;;;;;2.27;0.97;;;;;;;;;;6176108;23;20179;-90
2021/12/10 11:49:22;;;;;;;1.27;1.17;;;;;;;;;;6177412;23;20882;-93
2021/12/10 11:51:51;;;;;;;2.93;1.40;;;;;;;;;;6177791;23;20225;-91
2021/12/10 11:54:21;;;;;;;3.63;1.40;;;;;;;;;;6178062;23;20178;-93
2021/12/10 11:56:50;;;;;;;1.83;1.50;;;;;;;;;;6176099;23;20221;-93
2021/12/10 11:59:20;;;;;;;0.80;0.80;;;;;;;;;;6177956;23;20416;-92
2021/12/10 12:01:50;;;;;;;1.70;0.73;;;;;;;;;;6179558;23;20175;-91
2021/12/10 12:04:19;;;;;;;0.60;0.60;;;;;;;;;;6177733;23;20187;-93
2021/12/10 12:06:49;;;;;;;2.10;0.80;;;;;;;;;;6179874;23;20558;-90
2021/12/10 12:09:29;;;;;;;0.70;0.70;;;;;;;;;;6179330;23;20273;-93
2021/12/10 12:12:08;;;;;;;0.47;0.40;;;;;;;;;;6179188;23;20179;-92
2021/12/10 12:14:39;;;;;;;0.77;0.77;;;;;;;;;;6179754;23;20178;-91
2021/12/10 12:17:08;;;;;;;1.07;0.77;;;;;;;;;;6178353;23;20170;-93
2021/12/10 12:19:36;;;;;;;1.13;0.70;;;;;;;;;;6179014;23;20199;-93
2021/12/10 12:25:11;;;;;;;1.63;1.00;;;;;;;;;;6180215;23;20157;-92
2021/12/10 12:27:39;;;;;;;3.83;0.90;;;;;;;;;;6178302;23;20178;-91
2021/12/10 12:30:09;;;;;;;1.27;1.00;;;;;;;;;;6177637;23;20202;-93
2021/12/10 12:32:40;;;;;;;0.40;0.40;;;;;;;;;;6188037;23;20189;-93
2021/12/10 12:35:17;;;;;;;2.40;0.70;;;;;;;;;;6181291;23;20262;-93
2021/12/10 12:37:47;;;;;;;2.33;1.00;;;;;;;;;;6184780;23;20238;-92
2021/12/10 12:40:15;;;;;;;1.10;0.83;;;;;;;;;;6178151;23;20278;-93
2021/12/10 12:42:47;;;;;;;1.03;0.70;;;;;;;;;;6179930;23;20179;-92
2021/12/10 12:45:17;;;;;;;0.90;0.87;;;;;;;;;;6179750;23;20200;-92
2021/12/10 12:47:46;;;;;;;1.03;0.80;;;;;;;;;;6178445;23;20652;-92
2021/12/10 12:50:14;;;;;;;1.10;0.97;;;;;;;;;;6180477;23;20203;-92
2021/12/10 12:52:44;;;;;;;2.77;1.23;;;;;;;;;;6176923;23;20182;-91
2021/12/10 12:55:23;;;;;;;1.57;0.80;;;;;;;;;;6178888;23;20182;-93
2021/12/10 12:57:52;;;;;;;3.00;2.07;;;;;;;;;;6179005;23;20249;-91
2021/12/10 13:00:25;;;;;;;3.53;3.23;;;;;;;;;;6180116;23;20199;-94
2021/12/10 13:02:52;;;;;;;3.17;2.67;;;;;;;;;;6178449;23;20183;-92
2021/12/10 13:05:20;;;;;;;3.63;2.50;;;;;;;;;;6179053;23;20485;-94
2021/12/10 13:07:47;;;;;;;2.53;1.30;;;;;;;;;;6180550;23;20214;-95
2021/12/10 13:10:20;;;;;;;3.70;1.83;;;;;;;;;;6177262;23;20218;-94
2021/12/10 13:12:56;;;;;;;3.47;2.07;;;;;;;;;;6178532;23;20250;-94
2021/12/10 13:15:27;;;;;;;3.30;1.57;;;;;;;;;;6179703;23;20186;-94
2021/12/10 13:17:57;;;;;;;2.60;1.33;;;;;;;;;;6180366;23;20179;-91
2021/12/10 13:20:26;;;;;;;1.80;1.63;;;;;;;;;;6179016;23;20195;-92
2021/12/10 13:22:55;;;;;;;1.60;1.50;;;;;;;;;;6182274;23;20184;-93
2021/12/10 13:25:23;;;;;;;4.27;1.67;;;;;;;;;;6182992;23;20178;-93
2021/12/10 13:27:51;;;;;;;2.00;1.53;;;;;;;;;;6180499;23;20182;-92
2021/12/10 13:30:20;;;;;;;2.37;1.90;;;;;;;;;;6182155;23;20198;-93
2021/12/10 13:32:50;;;;;;;2.30;1.70;;;;;;;;;;6182639;23;20185;-93
2021/12/10 13:35:18;;;;;;;2.67;1.60;;;;;;;;;;6183830;23;20244;-93
2021/12/10 13:37:49;;;;;;;2.63;2.03;;;;;;;;;;6181658;23;20183;-93
2021/12/10 13:40:16;;;;;;;4.63;2.37;;;;;;;;;;6182830;23;20218;-92
2021/12/10 13:42:43;;;;;;;2.70;2.40;;;;;;;;;;6183473;23;20210;-93
2021/12/10 13:45:11;;;;;;;4.50;2.73;;;;;;;;;;6182149;23;20182;-93
2021/12/10 13:47:49;;;;;;;2.50;2.30;;;;;;;;;;6180030;23;20187;-93
2021/12/10 13:50:19;;;;;;;2.33;2.10;;;;;;;;;;6181883;23;20208;-93
2021/12/10 13:52:49;;;;;;;4.00;2.37;;;;;;;;;;6183481;23;20174;-94
2021/12/10 13:55:20;;;;;;;2.13;1.90;;;;;;;;;;6181307;23;20182;-94
2021/12/10 13:58:07;;;;;;;2.57;1.73;;;;;;;;;;6178931;23;20223;-92
2021/12/10 14:00:34;;;;;;;4.40;1.93;;;;;;;;;;6180551;23;20591;-95
2021/12/10 14:03:02;;;;;;;3.13;2.10;;;;;;;;;;6178662;23;20237;-93
2021/12/10 14:05:32;;;;;;;7.20;2.87;;;;;;;;;;6183182;23;20226;-93
2021/12/10 14:08:01;;;;;;;4.83;2.23;;;;;;;;;;6191358;23;20207;-93
2021/12/10 14:10:31;;;;;;;3.37;2.40;;;;;;;;;;6202158;23;20250;-94
2021/12/10 14:12:59;;;;;;;10.33;5.40;;;;;;;;;;6199640;23;20205;-94
2021/12/10 14:15:35;;;;;;;7.40;4.13;;;;;;;;;;6207774;23;20175;-94
2021/12/10 14:18:04;;;;;;;10.00;6.13;;;;;;;;;;6206871;23;20181;-94
2021/12/10 14:20:35;;;;;;;7.27;4.47;;;;;;;;;;6207810;23;20194;-92
2021/12/10 14:23:04;;;;;;;7.93;4.67;;;;;;;;;;6207301;23;20195;-93
2021/12/10 14:25:36;;;;;;;5.00;3.00;;;;;;;;;;6208060;23;20213;-94
2021/12/10 14:28:05;;;;;;;5.67;3.50;;;;;;;;;;6208221;23;20227;-93
2021/12/10 14:30:37;;;;;;;6.37;3.80;;;;;;;;;;6207775;23;20206;-94
2021/12/10 14:33:09;;;;;;;5.23;3.53;;;;;;;;;;6208400;23;20162;-94
2021/12/10 14:35:54;;;;;;;2.70;2.30;;;;;;;;;;6208360;23;20242;-93
2021/12/10 14:38:38;;;;;;;3.80;2.80;;;;;;;;;;6208051;23;20205;-93
2021/12/10 14:41:08;;;;;;;5.30;3.33;;;;;;;;;;6207690;23;20225;-94
2021/12/10 14:43:40;;;;;;;5.57;3.10;;;;;;;;;;6207730;23;20158;-94
2021/12/10 14:46:15;;;;;;;4.90;2.97;;;;;;;;;;6206495;23;20250;-94
2021/12/10 14:48:57;;;;;;;5.07;3.00;;;;;;;;;;6196489;23;20174;-95
2021/12/10 14:51:25;;;;;;;4.20;3.43;;;;;;;;;;6194918;23;20225;-95
2021/12/10 14:54:02;;;;;;;6.23;3.23;;;;;;;;;;6191664;23;20244;-95
2021/12/10 14:56:33;;;;;;;7.97;4.50;;;;;;;;;;6191626;23;20204;-96
2021/12/10 14:59:08;;;;;;;6.77;3.30;;;;;;;;;;6191787;23;20174;-94
2021/12/10 15:01:38;;;;;;;6.97;4.57;;;;;;;;;;6191771;23;20642;-95
2021/12/10 15:04:12;;;;;;;7.23;3.57;;;;;;;;;;6191246;23;20175;-95
2021/12/10 15:06:54;;;;;;;8.13;4.07;;;;;;;;;;6190632;23;20175;-95
2021/12/10 15:09:24;;;;;;;7.27;4.47;;;;;;;;;;6191590;23;20202;-95
2021/12/10 15:11:53;;;;;;;5.80;3.53;;;;;;;;;;6191761;23;20247;-95
2021/12/10 15:14:22;;;;;;;6.03;3.77;;;;;;;;;;6191527;23;20618;-95
2021/12/10 15:16:52;;;;;;;6.80;3.90;;;;;;;;;;6191351;23;20179;-95
2021/12/10 15:19:25;;;;;;;4.67;3.47;;;;;;;;;;6191088;23;20270;-95
2021/12/10 15:21:54;;;;;;;8.40;4.60;;;;;;;;;;6191981;23;20186;-94
2021/12/10 15:24:25;;;;;;;9.80;5.77;;;;;;;;;;6191907;23;20206;-95